Time;durP1;ratioP1;P1;durP2;ratioP2;P2;SDS_P1;SDS_P2;PMS_P1;PMS_P2;Temp;Humidity;BMP_temperature;BMP_pressure;BME280_temperature;BME280_humidity;BME280_pressure;Samples;Min_cycle;Max_cycle;Signal;HPM_P1;HPM_P2
2022/11/12 00:02:15;;;;;;;;;;;;;;;13.14;56.90;101117.34;4475983;32;33886;-68
2022/11/12 00:05:00;;;;;;;;;;;;;;;12.97;57.67;101114.84;4475458;32;32048;-68
2022/11/12 00:07:46;;;;;;;;;;;;;;;13.06;57.30;101119.66;4471655;32;34190;-66
2022/11/12 00:10:32;;;;;;;;;;;;;;;12.90;57.97;101121.59;4483532;32;34392;-67
2022/11/12 00:13:18;;;;;;;;;;;;;;;12.94;58.13;101115.94;4468809;32;34159;-68
2022/11/12 00:16:04;;;;;;;;;;;;;;;12.70;58.92;101117.44;4467736;32;33783;-65
2022/11/12 00:18:50;;;;;;;;;;;;;;;12.78;59.01;101109.78;4469330;32;34405;-64
2022/11/12 00:21:35;;;;;;;;;;;;;;;13.01;58.15;101116.41;4468453;32;35750;-65
2022/11/12 00:24:21;;;;;;;;;;;;;;;12.87;58.70;101103.81;4465572;32;34489;-65
2022/11/12 00:27:06;;;;;;;;;;;;;;;12.95;58.26;101098.84;4474469;32;32781;-65
2022/11/12 00:29:52;;;;;;;;;;;;;;;12.73;58.69;101101.16;4467280;32;32798;-65
2022/11/12 00:32:38;;;;;;;;;;;;;;;12.75;59.11;101102.78;4464787;32;33962;-65
2022/11/12 00:35:24;;;;;;;;;;;;;;;12.98;58.22;101095.97;4478032;32;35541;-65
2022/11/12 00:38:10;;;;;;;;;;;;;;;12.94;58.54;101098.94;4467039;32;31982;-64
2022/11/12 00:40:58;;;;;;;;;;;;;;;12.82;59.27;101116.69;4468573;32;33036;-64
2022/11/12 00:43:43;;;;;;;;;;;;;;;12.91;59.12;101107.22;4479635;32;34290;-64
2022/11/12 00:46:29;;;;;;;;;;;;;;;13.03;58.93;101098.34;4468723;32;35467;-65
2022/11/12 00:49:15;;;;;;;;;;;;;;;12.83;59.44;101103.16;4463630;32;32466;-64
2022/11/12 00:52:01;;;;;;;;;;;;;;;12.71;59.76;101086.94;4466985;32;34416;-64
2022/11/12 00:54:46;;;;;;;;;;;;;;;12.87;59.35;101085.00;4466064;32;34006;-64
2022/11/12 00:57:32;;;;;;;;;;;;;;;13.04;58.73;101070.53;4474463;32;33725;-65
2022/11/12 01:00:18;;;;;;;;;;;;;;;12.95;59.26;101079.16;4467469;32;33296;-64
2022/11/12 01:03:03;;;;;;;;;;;;;;;12.79;59.76;101082.81;4465103;32;32287;-65
2022/11/12 01:05:49;;;;;;;;;;;;;;;12.88;59.59;101084.06;4470245;32;34161;-65
2022/11/12 01:08:35;;;;;;;;;;;;;;;12.94;59.67;101082.81;4465719;32;34744;-64
2022/11/12 01:11:22;;;;;;;;;;;;;;;12.90;60.04;101078.59;4464871;32;34384;-64
2022/11/12 01:14:08;;;;;;;;;;;;;;;12.70;60.98;101075.34;4465863;32;35145;-65
2022/11/12 01:16:53;;;;;;;;;;;;;;;12.73;60.81;101069.75;4465162;32;34232;-65
2022/11/12 01:19:39;;;;;;;;;;;;;;;12.56;61.40;101061.91;4466674;32;34971;-65
2022/11/12 01:22:25;;;;;;;;;;;;;;;12.63;61.17;101063.25;4472400;32;33657;-65
2022/11/12 01:25:10;;;;;;;;;;;;;;;12.68;61.25;101063.84;4465952;32;34242;-64
2022/11/12 01:27:57;;;;;;;;;;;;;;;12.63;61.39;101054.34;4472791;32;33790;-65
2022/11/12 01:30:42;;;;;;;;;;;;;;;12.63;61.51;101049.81;4468895;32;34037;-66
2022/11/12 01:33:28;;;;;;;;;;;;;;;12.42;62.35;101051.16;4464228;32;33602;-65
2022/11/12 01:36:14;;;;;;;;;;;;;;;12.48;61.90;101051.63;4469335;32;34488;-66
2022/11/12 01:39:00;;;;;;;;;;;;;;;12.88;60.66;101051.81;4473981;32;33882;-65
2022/11/12 01:41:46;;;;;;;;;;;;;;;12.64;61.29;101045.31;4464167;32;33977;-65
2022/11/12 01:44:31;;;;;;;;;;;;;;;12.78;61.38;101048.00;4467896;32;34381;-65
2022/11/12 01:47:17;;;;;;;;;;;;;;;13.02;60.35;101049.09;4458399;32;34327;-66
2022/11/12 01:50:05;;;;;;;;;;;;;;;12.87;60.67;101044.69;4468620;32;34067;-66
2022/11/12 01:52:53;;;;;;;;;;;;;;;12.81;60.66;101053.19;4465685;32;34240;-65
2022/11/12 01:55:39;;;;;;;;;;;;;;;13.15;59.52;101046.50;4467290;32;33081;-66
2022/11/12 01:58:25;;;;;;;;;;;;;;;13.26;59.11;101045.84;4461475;32;33621;-66
2022/11/12 02:01:11;;;;;;;;;;;;;;;13.17;59.27;101036.50;4453404;32;34407;-65
2022/11/12 02:03:57;;;;;;;;;;;;;;;13.44;58.69;101044.59;4464424;32;34833;-66
2022/11/12 02:06:43;;;;;;;;;;;;;;;13.60;58.14;101044.47;4473695;32;33307;-66
2022/11/12 02:09:29;;;;;;;;;;;;;;;13.71;57.46;101047.31;4475222;32;33875;-65
2022/11/12 02:15:19;;;;;;;;;;;;;;;13.24;58.12;101045.94;4465446;32;34483;-65
2022/11/12 02:18:05;;;;;;;;;;;;;;;12.76;59.42;101033.78;4463274;32;33815;-66
2022/11/12 02:20:54;;;;;;;;;;;;;;;13.08;58.26;101034.41;4450623;32;33962;-66
2022/11/12 02:23:40;;;;;;;;;;;;;;;13.05;58.34;101023.84;4462865;32;35619;-65
2022/11/12 02:26:26;;;;;;;;;;;;;;;12.79;58.74;101017.47;4466175;32;34060;-65
2022/11/12 02:29:11;;;;;;;;;;;;;;;12.99;57.91;101016.19;4467199;32;33503;-65
2022/11/12 02:31:57;;;;;;;;;;;;;;;12.96;57.90;101013.69;4462590;32;35135;-65
2022/11/12 02:34:43;;;;;;;;;;;;;;;12.88;57.91;101019.59;4471666;32;34352;-66
2022/11/12 02:37:28;;;;;;;;;;;;;;;13.06;57.13;101017.50;4473160;32;33803;-64
2022/11/12 02:40:14;;;;;;;;;;;;;;;12.98;57.08;101014.47;4470479;32;33335;-65
2022/11/12 02:43:00;;;;;;;;;;;;;;;12.85;57.35;101025.16;4468276;32;34643;-65
2022/11/12 02:45:46;;;;;;;;;;;;;;;12.80;57.39;101022.75;4467841;32;35262;-66
2022/11/12 02:48:32;;;;;;;;;;;;;;;12.76;57.45;101029.28;4469620;32;34928;-65
2022/11/12 02:51:17;;;;;;;;;;;;;;;12.76;57.42;101025.72;4476608;32;33218;-66
2022/11/12 02:54:03;;;;;;;;;;;;;;;12.66;57.45;101027.28;4467880;32;34157;-64
2022/11/12 02:56:49;;;;;;;;;;;;;;;12.57;57.66;101034.09;4467455;32;34291;-65
2022/11/12 02:59:35;;;;;;;;;;;;;;;12.52;57.89;101039.75;4467220;32;34912;-65
2022/11/12 03:02:20;;;;;;;;;;;;;;;12.54;57.81;101034.28;4468259;32;33306;-64
2022/11/12 03:05:06;;;;;;;;;;;;;;;12.52;58.30;101037.06;4478126;32;32768;-67
2022/11/12 03:08:02;;;;;;;;;;;;;;;12.80;57.49;101033.50;4472573;32;34324;-66
2022/11/12 03:10:48;;;;;;;;;;;;;;;12.93;56.87;101032.72;4470283;32;34972;-65
2022/11/12 03:13:34;;;;;;;;;;;;;;;12.87;56.84;101035.78;4476956;32;33102;-65
2022/11/12 03:16:19;;;;;;;;;;;;;;;12.97;56.54;101027.06;4476335;32;34145;-65
2022/11/12 03:19:05;;;;;;;;;;;;;;;13.04;56.25;101022.16;4474559;32;33004;-66
2022/11/12 03:21:51;;;;;;;;;;;;;;;13.08;56.06;101029.03;4477070;32;33895;-65
2022/11/12 03:24:37;;;;;;;;;;;;;;;12.91;57.10;101029.28;4468588;32;33328;-65
2022/11/12 03:27:22;;;;;;;;;;;;;;;13.02;56.56;101026.75;4478343;32;34244;-65
2022/11/12 03:30:09;;;;;;;;;;;;;;;13.13;56.10;101018.88;4478602;32;34961;-65
2022/11/12 03:32:55;;;;;;;;;;;;;;;13.13;56.25;101029.63;4479121;32;35250;-65
2022/11/12 03:35:41;;;;;;;;;;;;;;;13.12;56.21;101027.00;4471061;32;34196;-64
2022/11/12 03:38:27;;;;;;;;;;;;;;;13.19;55.94;101036.41;4473025;32;34175;-66
2022/11/12 03:41:14;;;;;;;;;;;;;;;13.20;55.86;101038.16;4469230;32;34336;-64
2022/11/12 03:43:59;;;;;;;;;;;;;;;13.21;55.83;101037.16;4473659;32;32808;-64
2022/11/12 03:46:45;;;;;;;;;;;;;;;13.11;56.18;101033.37;4469076;32;34417;-63
2022/11/12 03:49:31;;;;;;;;;;;;;;;13.01;56.72;101035.78;4470026;32;35042;-63
2022/11/12 03:52:17;;;;;;;;;;;;;;;13.10;56.22;101039.69;4474338;32;33974;-64
2022/11/12 03:55:03;;;;;;;;;;;;;;;12.93;56.90;101038.09;4467795;32;35214;-69
2022/11/12 03:57:48;;;;;;;;;;;;;;;12.89;56.95;101042.78;4478705;32;33342;-66
2022/11/12 04:00:34;;;;;;;;;;;;;;;12.81;57.29;101051.34;4467295;32;32814;-72
2022/11/12 04:03:20;;;;;;;;;;;;;;;12.96;56.78;101048.62;4471642;32;34242;-64
2022/11/12 04:09:10;;;;;;;;;;;;;;;12.88;56.88;101042.91;4469687;32;34698;-65
2022/11/12 04:13:26;;;;;;;;;;;;;;;13.03;56.92;101050.84;4476586;32;34435;-64
2022/11/12 04:15:01;;;;;;;;;;;;;;;13.14;56.52;101043.91;4475475;32;34683;-64
2022/11/12 04:23:56;;;;;;;;;;;;;;;12.67;56.67;101039.75;4470283;32;33827;-66
2022/11/12 04:26:41;;;;;;;;;;;;;;;12.43;57.41;101040.31;4468227;32;32655;-66
2022/11/12 04:32:33;;;;;;;;;;;;;;;12.77;57.05;101031.00;4471285;32;34035;-66
2022/11/12 04:35:19;;;;;;;;;;;;;;;12.70;56.60;101024.28;4465268;32;35063;-66
2022/11/12 04:38:05;;;;;;;;;;;;;;;12.73;56.30;101018.72;4467675;32;34044;-66
2022/11/12 04:46:59;;;;;;;;;;;;;;;12.73;56.13;101032.16;4470020;32;32793;-65
2022/11/12 04:49:45;;;;;;;;;;;;;;;12.79;55.75;101031.78;4472864;32;34350;-65
2022/11/12 04:52:31;;;;;;;;;;;;;;;12.83;55.40;101029.75;4470831;32;35262;-65
2022/11/12 04:55:16;;;;;;;;;;;;;;;12.64;55.61;101032.72;4471740;32;33317;-66
2022/11/12 04:58:02;;;;;;;;;;;;;;;12.67;55.52;101026.31;4468131;32;35316;-67
2022/11/12 05:00:48;;;;;;;;;;;;;;;12.75;54.50;101027.56;4472976;32;33932;-67
2022/11/12 05:03:34;;;;;;;;;;;;;;;12.45;55.10;101018.72;4468766;32;34478;-66
2022/11/12 05:09:25;;;;;;;;;;;;;;;11.97;56.81;101021.66;4467878;32;32950;-66
2022/11/12 05:12:10;;;;;;;;;;;;;;;11.89;56.56;101037.34;4475692;32;34495;-67
2022/11/12 05:14:56;;;;;;;;;;;;;;;12.07;55.91;101033.56;4466572;32;34097;-66
2022/11/12 05:17:42;;;;;;;;;;;;;;;12.12;55.32;101034.13;4466327;32;33584;-66
2022/11/12 05:20:28;;;;;;;;;;;;;;;12.06;55.46;101025.59;4476840;32;34247;-67
2022/11/12 05:23:13;;;;;;;;;;;;;;;12.02;55.73;101029.44;4473429;32;33649;-66
2022/11/12 05:25:59;;;;;;;;;;;;;;;12.08;55.48;101043.34;4471704;32;34874;-66
2022/11/12 05:28:45;;;;;;;;;;;;;;;12.11;55.36;101043.16;4473795;32;34516;-66
2022/11/12 05:31:31;;;;;;;;;;;;;;;12.11;55.18;101034.25;4456344;32;34747;-66
2022/11/12 05:34:17;;;;;;;;;;;;;;;12.10;55.35;101046.81;4453980;32;35419;-66
2022/11/12 05:37:08;;;;;;;;;;;;;;;12.09;54.96;101050.44;4476602;32;32924;-66
2022/11/12 05:39:53;;;;;;;;;;;;;;;12.19;54.18;101047.19;4466616;32;34099;-66
2022/11/12 05:42:39;;;;;;;;;;;;;;;12.14;53.66;101047.47;4467310;32;32833;-66
2022/11/12 05:45:24;;;;;;;;;;;;;;;12.16;53.76;101044.69;4469807;32;34216;-66
2022/11/12 05:48:11;;;;;;;;;;;;;;;12.20;53.60;101047.13;4465693;32;34113;-67
2022/11/12 05:50:56;;;;;;;;;;;;;;;12.10;53.94;101046.81;4469320;32;34122;-69
2022/11/12 05:53:59;;;;;;;;;;;;;;;11.99;54.44;101043.87;4464824;32;34413;-69
2022/11/12 05:56:45;;;;;;;;;;;;;;;11.98;54.32;101042.19;4475672;32;35165;-69
2022/11/12 05:59:31;;;;;;;;;;;;;;;11.93;55.02;101049.63;4468062;32;36816;-68
2022/11/12 06:02:16;;;;;;;;;;;;;;;11.94;54.59;101059.41;4464519;32;35097;-69
2022/11/12 06:05:03;;;;;;;;;;;;;;;11.93;54.22;101052.31;4469897;32;34682;-69
2022/11/12 06:07:48;;;;;;;;;;;;;;;11.81;54.73;101061.03;4471155;32;32361;-69
2022/11/12 06:10:34;;;;;;;;;;;;;;;11.86;54.81;101061.69;4467033;32;32761;-70
2022/11/12 06:13:21;;;;;;;;;;;;;;;11.75;55.94;101069.44;4466928;32;33830;-69
2022/11/12 06:16:07;;;;;;;;;;;;;;;11.68;56.62;101073.44;4466044;32;34291;-71
2022/11/12 06:18:52;;;;;;;;;;;;;;;12.00;55.36;101064.37;4468049;32;33913;-68
2022/11/12 06:21:38;;;;;;;;;;;;;;;12.10;54.95;101076.34;4475102;32;35260;-68
2022/11/12 06:24:24;;;;;;;;;;;;;;;12.06;54.83;101073.91;4478463;32;33046;-69
2022/11/12 06:27:15;;;;;;;;;;;;;;;11.91;55.47;101083.75;4472835;32;34554;-67
2022/11/12 06:30:01;;;;;;;;;;;;;;;12.01;55.32;101086.75;4474498;32;34099;-71
2022/11/12 06:32:47;;;;;;;;;;;;;;;11.96;55.61;101094.19;4467583;32;34909;-69
2022/11/12 06:35:33;;;;;;;;;;;;;;;12.01;55.37;101097.47;4469309;32;32248;-69
2022/11/12 06:38:22;;;;;;;;;;;;;;;12.18;54.41;101105.38;4468285;32;34035;-69
2022/11/12 06:41:09;;;;;;;;;;;;;;;12.12;54.67;101105.75;4459173;32;32741;-70
2022/11/12 06:43:54;;;;;;;;;;;;;;;11.82;56.28;101103.88;4466194;32;32950;-70
2022/11/12 06:46:40;;;;;;;;;;;;;;;12.03;55.83;101112.50;4469384;32;31830;-71
2022/11/12 06:49:28;;;;;;;;;;;;;;;12.24;54.83;101118.44;4475767;32;35048;-70
2022/11/12 06:52:14;;;;;;;;;;;;;;;12.27;54.33;101112.88;4468401;32;33086;-71
2022/11/12 06:55:01;;;;;;;;;;;;;;;12.35;53.69;101117.78;4470545;32;35028;-71
2022/11/12 06:57:50;;;;;;;;;;;;;;;12.29;53.87;101115.47;4478116;32;31877;-69
2022/11/12 07:00:35;;;;;;;;;;;;;;;12.32;54.10;101116.13;4465418;32;32644;-71
2022/11/12 07:03:21;;;;;;;;;;;;;;;12.33;54.61;101117.03;4468202;32;35277;-71
2022/11/12 07:06:08;;;;;;;;;;;;;;;12.33;54.87;101107.16;4467197;32;34201;-71
2022/11/12 07:08:53;;;;;;;;;;;;;;;12.34;55.38;101116.06;4456261;32;34390;-70
2022/11/12 07:11:39;;;;;;;;;;;;;;;12.34;54.89;101116.91;4468393;32;34172;-69
2022/11/12 07:14:25;;;;;;;;;;;;;;;12.54;53.15;101118.37;4467876;32;34721;-70
2022/11/12 07:17:10;;;;;;;;;;;;;;;12.63;53.67;101118.81;4467009;32;34521;-70
2022/11/12 07:19:56;;;;;;;;;;;;;;;12.95;53.50;101133.78;4472227;32;33350;-70
2022/11/12 07:22:48;;;;;;;;;;;;;;;12.94;54.58;101141.94;4474785;32;34597;-69
2022/11/12 07:25:33;;;;;;;;;;;;;;;13.22;54.12;101139.22;4472177;32;34582;-70
2022/11/12 07:28:20;;;;;;;;;;;;;;;13.30;54.30;101144.16;4470527;32;34997;-69
2022/11/12 07:31:07;;;;;;;;;;;;;;;13.40;54.03;101136.38;4480900;32;34536;-70
2022/11/12 07:33:52;;;;;;;;;;;;;;;13.63;53.62;101135.72;4468260;32;33995;-69
2022/11/12 07:36:38;;;;;;;;;;;;;;;13.89;52.67;101133.13;4473291;32;33828;-70
2022/11/12 07:39:24;;;;;;;;;;;;;;;13.81;53.35;101132.81;4472815;32;32907;-70
2022/11/12 07:42:10;;;;;;;;;;;;;;;13.90;52.43;101129.47;4456954;32;31789;-70
2022/11/12 07:44:55;;;;;;;;;;;;;;;13.67;54.00;101125.63;4474689;32;34629;-69
2022/11/12 07:47:41;;;;;;;;;;;;;;;13.88;54.21;101120.66;4474127;32;34169;-69
2022/11/12 07:50:27;;;;;;;;;;;;;;;14.19;53.09;101112.25;4468946;32;35193;-69
2022/11/12 07:53:13;;;;;;;;;;;;;;;14.50;51.86;101112.81;4469990;32;34122;-69
2022/11/12 07:55:59;;;;;;;;;;;;;;;14.75;52.08;101113.81;4477730;32;34281;-69
2022/11/12 07:58:45;;;;;;;;;;;;;;;15.27;50.97;101121.72;4467984;32;33078;-70
2022/11/12 08:01:32;;;;;;;;;;;;;;;15.72;49.93;101116.66;4478089;32;32918;-69
2022/11/12 08:04:18;;;;;;;;;;;;;;;16.06;49.78;101122.22;4472424;32;32993;-66
2022/11/12 08:07:03;;;;;;;;;;;;;;;16.24;49.17;101120.84;4470878;32;34817;-66
2022/11/12 08:09:49;;;;;;;;;;;;;;;16.74;47.57;101134.09;4474691;32;34003;-66
2022/11/12 08:12:35;;;;;;;;;;;;;;;17.02;47.27;101140.91;4468255;32;35281;-66
2022/11/12 08:15:21;;;;;;;;;;;;;;;16.50;49.38;101143.13;4473655;32;33640;-69
2022/11/12 08:18:07;;;;;;;;;;;;;;;16.97;47.93;101149.37;4470275;32;32998;-66
2022/11/12 08:20:58;;;;;;;;;;;;;;;16.94;48.31;101152.31;4474327;32;32855;-66
2022/11/12 08:23:43;;;;;;;;;;;;;;;17.04;48.77;101157.00;4474400;32;33860;-66
2022/11/12 08:26:29;;;;;;;;;;;;;;;17.02;48.27;101153.56;4468982;32;33777;-66
2022/11/12 08:29:15;;;;;;;;;;;;;;;17.10;48.22;101153.81;4480310;32;34138;-68
2022/11/12 08:32:01;;;;;;;;;;;;;;;16.64;49.77;101150.16;4474525;32;35248;-67
2022/11/12 08:34:46;;;;;;;;;;;;;;;16.93;49.31;101153.31;4468590;32;33946;-67
2022/11/12 08:37:32;;;;;;;;;;;;;;;17.36;48.28;101155.28;4471143;32;33121;-66
2022/11/12 08:40:18;;;;;;;;;;;;;;;17.25;48.46;101149.03;4472363;32;34717;-66
2022/11/12 08:43:05;;;;;;;;;;;;;;;17.51;48.26;101153.19;4468355;32;34401;-67
2022/11/12 08:45:51;;;;;;;;;;;;;;;17.31;48.65;101151.25;4471426;32;34257;-67
2022/11/12 08:48:38;;;;;;;;;;;;;;;15.77;52.46;101154.97;4476356;32;33665;-67
2022/11/12 08:51:24;;;;;;;;;;;;;;;17.31;48.85;101148.53;4475019;32;34180;-67
2022/11/12 08:54:10;;;;;;;;;;;;;;;17.41;48.65;101161.19;4475111;32;35378;-67
2022/11/12 08:56:56;;;;;;;;;;;;;;;17.33;49.23;101155.53;4472994;32;34946;-67
2022/11/12 08:59:42;;;;;;;;;;;;;;;16.99;49.18;101160.94;4468572;32;31992;-65
2022/11/12 09:02:28;;;;;;;;;;;;;;;17.42;48.36;101159.34;4466605;32;33997;-66
2022/11/12 09:05:14;;;;;;;;;;;;;;;17.03;49.48;101172.37;4478970;32;32957;-66
2022/11/12 09:08:00;;;;;;;;;;;;;;;16.67;50.78;101174.25;4468005;32;33968;-66
2022/11/12 09:10:46;;;;;;;;;;;;;;;16.36;51.62;101174.88;4478294;32;31911;-67
2022/11/12 09:13:32;;;;;;;;;;;;;;;15.05;54.67;101187.13;4445178;32;821148;-68
2022/11/12 09:16:20;;;;;;;;;;;;;;;15.51;53.33;101180.28;4468664;32;34399;-66
2022/11/12 09:19:05;;;;;;;;;;;;;;;15.37;54.66;101186.66;4471171;32;35206;-66
2022/11/12 09:21:51;;;;;;;;;;;;;;;15.69;53.33;101186.19;4480141;32;33248;-66
2022/11/12 09:24:37;;;;;;;;;;;;;;;15.21;54.42;101181.50;4471606;32;34031;-67
2022/11/12 09:27:25;;;;;;;;;;;;;;;15.63;52.83;101187.47;4468564;32;34220;-67
2022/11/12 09:30:11;;;;;;;;;;;;;;;15.48;53.53;101194.00;4471621;32;33086;-66
2022/11/12 09:32:57;;;;;;;;;;;;;;;14.56;56.89;101205.84;4476270;32;31898;-66
2022/11/12 09:35:44;;;;;;;;;;;;;;;14.43;57.77;101206.66;4473469;32;35319;-66
2022/11/12 09:38:30;;;;;;;;;;;;;;;14.53;57.22;101208.75;4473727;32;34291;-66
2022/11/12 09:41:19;;;;;;;;;;;;;;;15.01;55.73;101212.59;4476004;32;35470;-66
2022/11/12 09:44:08;;;;;;;;;;;;;;;14.78;56.57;101216.03;4469053;32;33479;-66
2022/11/12 09:46:56;;;;;;;;;;;;;;;15.31;54.79;101211.38;4462237;32;34243;-67
2022/11/12 09:49:49;;;;;;;;;;;;;;;14.29;57.29;101208.56;4468281;32;34202;-67
2022/11/12 09:52:34;;;;;;;;;;;;;;;14.68;56.66;101205.88;4474411;32;34006;-66
2022/11/12 09:55:20;;;;;;;;;;;;;;;15.03;55.36;101207.97;4469379;32;33586;-67
2022/11/12 09:58:10;;;;;;;;;;;;;;;14.89;55.91;101208.94;4467005;32;33996;-66
2022/11/12 10:01:00;;;;;;;;;;;;;;;14.61;56.42;101206.41;4471873;32;34320;-67
2022/11/12 10:03:46;;;;;;;;;;;;;;;13.81;58.82;101216.22;4468999;32;34276;-66
2022/11/12 10:06:33;;;;;;;;;;;;;;;14.20;57.97;101224.38;4476192;32;33371;-65
2022/11/12 10:09:21;;;;;;;;;;;;;;;13.66;59.81;101231.53;4466835;32;34176;-65
2022/11/12 10:12:32;;;;;;;;;;;;;;;14.80;56.35;101222.16;4466980;32;35001;-66
2022/11/12 10:18:48;;;;;;;;;;;;;;;14.83;56.22;101227.34;4463609;32;32931;-66
2022/11/12 10:21:40;;;;;;;;;;;;;;;14.92;56.40;101218.62;4467863;32;33071;-66
2022/11/12 10:24:26;;;;;;;;;;;;;;;15.23;55.36;101224.56;4468824;32;35088;-68
2022/11/12 10:27:14;;;;;;;;;;;;;;;15.44;56.01;101219.47;4469969;32;33955;-66
2022/11/12 10:30:04;;;;;;;;;;;;;;;15.83;54.90;101216.63;4467059;32;34391;-66
2022/11/12 10:32:50;;;;;;;;;;;;;;;15.75;54.93;101210.03;4467673;32;35859;-66
2022/11/12 10:35:36;;;;;;;;;;;;;;;16.42;52.56;101210.41;4469082;32;34171;-67
2022/11/12 10:38:24;;;;;;;;;;;;;;;16.47;51.95;101212.78;4471201;32;33767;-67
2022/11/12 10:41:21;;;;;;;;;;;;;;;16.24;52.04;101207.28;4467707;32;34151;-66
2022/11/12 10:44:09;;;;;;;;;;;;;;;16.47;51.74;101210.09;4479122;32;33993;-66
2022/11/12 10:47:11;;;;;;;;;;;;;;;16.30;52.85;101203.22;4455808;32;35100;-66
2022/11/12 10:50:18;;;;;;;;;;;;;;;16.77;51.56;101199.63;4466902;32;34234;-66
2022/11/12 10:53:05;;;;;;;;;;;;;;;16.76;51.94;101199.75;4472124;32;34518;-67
2022/11/12 10:55:58;;;;;;;;;;;;;;;17.53;49.59;101189.13;4472099;32;32905;-68
2022/11/12 10:58:44;;;;;;;;;;;;;;;17.17;50.31;101182.97;4466977;32;34870;-66
2022/11/12 11:01:30;;;;;;;;;;;;;;;16.84;50.21;101178.38;4470836;32;33061;-70
2022/11/12 11:04:23;;;;;;;;;;;;;;;17.40;48.91;101193.81;4471832;32;31987;-67
2022/11/12 11:07:19;;;;;;;;;;;;;;;17.49;48.42;101187.62;4482109;32;35048;-67
2022/11/12 11:10:11;;;;;;;;;;;;;;;16.75;50.64;101192.59;4472243;32;34095;-68
2022/11/12 11:13:35;;;;;;;;;;;;;;;17.32;49.30;101191.69;4469416;32;34218;-69
2022/11/12 11:16:24;;;;;;;;;;;;;;;16.56;51.04;101187.72;4391785;32;33457;-67
2022/11/12 11:19:11;;;;;;;;;;;;;;;16.20;53.23;101180.59;4374697;32;34273;-69
2022/11/12 11:21:57;;;;;;;;;;;;;;;16.41;52.74;101178.97;4463406;32;33669;-68
2022/11/12 11:24:47;;;;;;;;;;;;;;;16.82;50.83;101174.94;4473006;32;34063;-65
2022/11/12 11:27:35;;;;;;;;;;;;;;;16.65;50.86;101169.94;4481013;32;32078;-67
2022/11/12 11:30:21;;;;;;;;;;;;;;;16.79;50.62;101167.06;4470822;32;35381;-67
2022/11/12 11:33:19;;;;;;;;;;;;;;;17.00;50.21;101173.47;4454931;32;34130;-69
2022/11/12 11:36:23;;;;;;;;;;;;;;;16.90;50.70;101163.50;4473970;32;34507;-68
2022/11/12 11:39:19;;;;;;;;;;;;;;;16.68;51.30;101175.09;4467574;32;32214;-67
2022/11/12 11:42:07;;;;;;;;;;;;;;;16.92;50.87;101169.69;4469574;32;34001;-67
2022/11/12 11:45:03;;;;;;;;;;;;;;;17.37;49.61;101170.53;4470650;32;35222;-67
2022/11/12 11:47:53;;;;;;;;;;;;;;;16.12;53.00;101174.94;4462974;32;34193;-65
2022/11/12 11:51:20;;;;;;;;;;;;;;;16.79;51.98;101174.28;4478478;32;34227;-67
2022/11/12 11:54:29;;;;;;;;;;;;;;;16.48;52.32;101165.84;4447844;32;35314;-67
2022/11/12 11:57:15;;;;;;;;;;;;;;;16.92;51.44;101154.31;4469889;32;33993;-67
2022/11/12 12:00:01;;;;;;;;;;;;;;;16.62;52.22;101149.41;4456849;32;34087;-66
2022/11/12 12:03:05;;;;;;;;;;;;;;;17.22;51.21;101155.53;4471821;32;33826;-67
2022/11/12 12:06:08;;;;;;;;;;;;;;;17.06;50.90;101155.06;4479513;32;34664;-67
2022/11/12 12:08:54;;;;;;;;;;;;;;;16.49;52.88;101154.91;4461034;32;33072;-66
2022/11/12 12:11:59;;;;;;;;;;;;;;;16.67;52.25;101154.47;4471128;32;35167;-67
2022/11/12 12:14:47;;;;;;;;;;;;;;;16.85;52.10;101153.03;4475280;32;34345;-66
2022/11/12 12:17:38;;;;;;;;;;;;;;;17.40;49.68;101148.66;4471010;32;34286;-66
2022/11/12 12:20:32;;;;;;;;;;;;;;;16.92;51.19;101148.91;4470542;32;33742;-65
2022/11/12 12:23:25;;;;;;;;;;;;;;;17.09;50.83;101143.97;4472769;32;32926;-65
2022/11/12 12:26:32;;;;;;;;;;;;;;;16.35;52.99;101138.91;4462844;32;32401;-65
2022/11/12 12:29:23;;;;;;;;;;;;;;;16.67;51.61;101140.97;4459842;32;34260;-65
2022/11/12 12:32:10;;;;;;;;;;;;;;;16.98;51.67;101129.47;4471644;32;33995;-65
2022/11/12 12:35:16;;;;;;;;;;;;;;;17.22;50.86;101128.47;4463365;32;33639;-64
2022/11/12 12:38:21;;;;;;;;;;;;;;;16.77;52.06;101126.62;4433344;32;31919;-69
2022/11/12 12:41:13;;;;;;;;;;;;;;;16.33;53.55;101130.06;4471866;32;34155;-68
2022/11/12 12:44:02;;;;;;;;;;;;;;;16.26;53.94;101128.81;4469697;32;34540;-67
2022/11/12 12:46:50;;;;;;;;;;;;;;;16.40;53.36;101123.19;4474034;32;32724;-68
2022/11/12 12:49:35;;;;;;;;;;;;;;;16.16;53.75;101128.66;4465292;32;33710;-69
2022/11/12 12:52:21;;;;;;;;;;;;;;;16.68;52.83;101134.56;4449239;32;32741;-68
2022/11/12 12:55:14;;;;;;;;;;;;;;;16.57;53.09;101130.00;4476109;32;35986;-69
2022/11/12 12:58:00;;;;;;;;;;;;;;;16.87;52.05;101128.59;4472678;32;34175;-68
2022/11/12 13:00:47;;;;;;;;;;;;;;;16.62;51.97;101133.19;4468879;32;35921;-69
2022/11/12 13:03:46;;;;;;;;;;;;;;;16.19;53.35;101125.72;4476383;32;34174;-67
2022/11/12 13:06:36;;;;;;;;;;;;;;;16.77;52.08;101131.16;4473404;32;34371;-65
2022/11/12 13:09:23;;;;;;;;;;;;;;;16.34;53.15;101128.19;4449347;32;32751;-67
2022/11/12 13:15:27;;;;;;;;;;;;;;;16.75;51.92;101128.56;4457360;32;34361;-64
2022/11/12 13:18:32;;;;;;;;;;;;;;;16.18;53.09;101121.31;4441170;32;34615;-65
2022/11/12 13:21:18;;;;;;;;;;;;;;;16.65;52.55;101118.59;4469372;32;35100;-65
2022/11/12 13:24:07;;;;;;;;;;;;;;;16.97;52.01;101127.75;4467814;32;33618;-65
2022/11/12 13:26:55;;;;;;;;;;;;;;;16.71;52.56;101121.66;4464249;32;33802;-66
2022/11/12 13:29:41;;;;;;;;;;;;;;;16.79;52.06;101125.63;4468967;32;35497;-64
2022/11/12 13:32:27;;;;;;;;;;;;;;;16.90;51.81;101129.22;4454259;32;33944;-64
2022/11/12 13:35:15;;;;;;;;;;;;;;;16.57;52.51;101121.03;4468654;32;33828;-65
2022/11/12 13:38:07;;;;;;;;;;;;;;;16.83;51.75;101128.00;4470008;32;32792;-65
2022/11/12 13:40:55;;;;;;;;;;;;;;;16.62;52.33;101122.38;4484707;32;33948;-66
2022/11/12 13:43:41;;;;;;;;;;;;;;;17.31;51.16;101126.88;4473258;32;34140;-64
2022/11/12 13:46:30;;;;;;;;;;;;;;;17.19;51.62;101126.88;4468980;32;31855;-65
2022/11/12 13:49:16;;;;;;;;;;;;;;;16.94;51.79;101127.97;4463510;32;34071;-65
2022/11/12 13:52:04;;;;;;;;;;;;;;;16.26;53.31;101128.81;4469397;32;34905;-65
2022/11/12 13:55:00;;;;;;;;;;;;;;;17.16;51.32;101123.56;4472622;32;34232;-65
2022/11/12 13:57:52;;;;;;;;;;;;;;;17.00;51.23;101137.47;4469090;32;33193;-65
2022/11/12 14:00:37;;;;;;;;;;;;;;;17.14;51.80;101128.22;4459174;32;33833;-66
2022/11/12 14:03:24;;;;;;;;;;;;;;;17.30;50.50;101130.56;4473875;32;35106;-66
2022/11/12 14:06:14;;;;;;;;;;;;;;;17.08;51.35;101134.12;4468449;32;34374;-64
2022/11/12 14:09:03;;;;;;;;;;;;;;;17.07;50.44;101137.81;4458272;32;33851;-64
2022/11/12 14:12:06;;;;;;;;;;;;;;;17.17;49.78;101133.41;4469722;32;34390;-64
2022/11/12 14:15:04;;;;;;;;;;;;;;;16.32;50.72;101133.75;4469800;32;34577;-65
2022/11/12 14:17:59;;;;;;;;;;;;;;;16.63;50.86;101124.13;4473084;32;34496;-65
2022/11/12 14:20:44;;;;;;;;;;;;;;;16.85;50.64;101123.28;4456996;32;31805;-64
2022/11/12 14:23:30;;;;;;;;;;;;;;;17.02;50.76;101126.53;4478550;32;35348;-66
2022/11/12 14:26:35;;;;;;;;;;;;;;;16.97;50.99;101122.31;4478678;31;35758;-66
2022/11/12 14:29:20;;;;;;;;;;;;;;;16.95;51.28;101126.13;4468393;32;34409;-66
2022/11/12 14:32:07;;;;;;;;;;;;;;;15.69;54.01;101114.19;4472009;32;34274;-66
2022/11/12 14:34:53;;;;;;;;;;;;;;;15.92;53.31;101114.28;4455471;32;36158;-67
2022/11/12 14:37:38;;;;;;;;;;;;;;;16.41;52.32;101116.81;4469295;31;33737;-69
2022/11/12 14:40:29;;;;;;;;;;;;;;;16.41;52.31;101116.81;4478359;31;33927;-64
2022/11/12 14:43:35;;;;;;;;;;;;;;;16.37;52.53;101122.56;4475596;32;32956;-64
2022/11/12 14:46:25;;;;;;;;;;;;;;;15.74;53.91;101121.97;4469332;32;33988;-64
2022/11/12 14:49:16;;;;;;;;;;;;;;;16.39;52.15;101123.31;4458877;32;32742;-64
2022/11/12 14:52:08;;;;;;;;;;;;;;;16.02;53.33;101120.75;4465551;31;34297;-66
2022/11/12 14:54:58;;;;;;;;;;;;;;;16.05;53.03;101113.28;4472058;32;33354;-66